createdAt,value
2022-10-13T00:01:15.250Z,12.27
2022-10-13T00:03:17.840Z,13.83
2022-10-13T00:05:20.283Z,11.80
2022-10-13T00:07:22.198Z,12.97
2022-10-13T00:09:24.142Z,12.23
2022-10-13T00:11:28.755Z,15.13
2022-10-13T00:13:30.774Z,11.90
2022-10-13T00:15:32.906Z,8.10
2022-10-13T00:17:36.467Z,9.10
2022-10-13T00:19:38.488Z,12.13
2022-10-13T00:21:41.320Z,9.43
2022-10-13T00:23:43.521Z,14.37
2022-10-13T00:25:47.623Z,8.77
2022-10-13T00:27:49.704Z,12.83
2022-10-13T00:29:51.706Z,14.00
2022-10-13T00:31:53.695Z,10.63
2022-10-13T00:33:56.189Z,13.37
2022-10-13T00:35:58.887Z,9.30
2022-10-13T00:38:00.860Z,11.83
2022-10-13T00:40:07.562Z,13.90
2022-10-13T00:42:13.493Z,10.53
2022-10-13T00:44:52.963Z,12.00
2022-10-13T00:46:55.061Z,8.90
2022-10-13T00:48:59.527Z,12.23
2022-10-13T00:51:01.536Z,17.43
2022-10-13T00:53:03.742Z,13.33
2022-10-13T00:55:06.626Z,11.60
2022-10-13T00:57:09.078Z,10.60
2022-10-13T00:59:18.879Z,12.43
2022-10-13T01:01:20.960Z,14.90
2022-10-13T01:03:23.530Z,10.13
2022-10-13T01:05:26.051Z,12.80
2022-10-13T01:07:30.906Z,11.60
2022-10-13T01:09:37.810Z,13.93
2022-10-13T01:12:03.145Z,11.53
2022-10-13T01:14:27.296Z,9.33
2022-10-13T01:16:54.152Z,12.93
2022-10-13T01:19:01.923Z,14.77
2022-10-13T01:21:40.340Z,9.87
2022-10-13T01:23:44.968Z,12.13
2022-10-13T01:26:06.668Z,13.00
2022-10-13T01:28:35.800Z,13.97
2022-10-13T01:30:43.688Z,14.17
2022-10-13T01:33:00.858Z,11.47
2022-10-13T01:35:37.541Z,9.77
2022-10-13T01:37:53.513Z,11.87
2022-10-13T01:40:13.878Z,15.80
2022-10-13T01:42:28.860Z,13.10
2022-10-13T01:44:36.502Z,12.70
2022-10-13T01:46:39.072Z,14.70
2022-10-13T01:48:42.851Z,11.87
2022-10-13T01:50:45.710Z,18.93
2022-10-13T01:52:48.294Z,13.30
2022-10-13T01:54:54.338Z,14.60
2022-10-13T01:56:56.778Z,18.37
2022-10-13T01:59:01.688Z,11.90
2022-10-13T02:01:28.703Z,13.50
2022-10-13T02:03:41.827Z,14.97
2022-10-13T02:06:30.470Z,19.90
2022-10-13T02:08:50.842Z,18.17
2022-10-13T02:10:59.253Z,19.70
2022-10-13T02:13:02.533Z,18.57
2022-10-13T02:15:05.763Z,16.90
2022-10-13T02:17:11.646Z,22.90
2022-10-13T02:19:17.567Z,19.93
2022-10-13T02:21:19.505Z,18.90
2022-10-13T02:23:21.755Z,22.33
2022-10-13T02:25:24.238Z,15.10
2022-10-13T02:27:27.225Z,21.03
2022-10-13T02:29:29.138Z,19.87
2022-10-13T02:31:31.033Z,17.53
2022-10-13T02:33:33.594Z,22.43
2022-10-13T02:35:35.620Z,15.83
2022-10-13T02:37:37.565Z,16.03
2022-10-13T02:39:40.033Z,13.40
2022-10-13T02:41:46.439Z,21.50
2022-10-13T02:43:48.374Z,12.43
2022-10-13T02:45:50.297Z,16.30
2022-10-13T02:47:52.327Z,17.43
2022-10-13T02:49:54.290Z,18.50
2022-10-13T02:51:56.204Z,13.57
2022-10-13T02:53:58.264Z,15.43
2022-10-13T02:56:00.193Z,14.80
2022-10-13T02:58:03.008Z,14.80
2022-10-13T03:00:07.192Z,15.47
2022-10-13T03:02:09.126Z,12.10
2022-10-13T03:04:11.732Z,19.27
2022-10-13T03:06:13.692Z,14.10
2022-10-13T03:08:15.672Z,17.30
2022-10-13T03:10:18.454Z,10.63
2022-10-13T03:12:21.675Z,18.63
2022-10-13T03:14:23.868Z,18.00
2022-10-13T03:16:25.933Z,15.93
2022-10-13T03:18:27.922Z,12.70
2022-10-13T03:20:29.950Z,16.83
2022-10-13T03:22:32.730Z,12.33
2022-10-13T03:24:34.726Z,14.73
2022-10-13T03:26:36.738Z,11.27
2022-10-13T03:28:38.769Z,12.10
2022-10-13T03:30:40.691Z,12.80
2022-10-13T03:32:42.687Z,10.77
2022-10-13T03:34:44.623Z,13.60
2022-10-13T03:36:46.631Z,11.73
2022-10-13T03:38:48.637Z,11.67
2022-10-13T03:40:50.532Z,12.40
2022-10-13T03:42:52.457Z,16.47
2022-10-13T03:44:56.505Z,12.13
2022-10-13T03:46:58.642Z,12.63
2022-10-13T03:49:00.576Z,18.10
2022-10-13T03:51:09.938Z,18.47
2022-10-13T03:53:14.595Z,14.73
2022-10-13T03:55:17.430Z,24.27
2022-10-13T03:57:19.295Z,17.00
2022-10-13T03:59:21.262Z,19.57
2022-10-13T04:01:25.945Z,18.73
2022-10-13T04:03:27.932Z,14.37
2022-10-13T04:05:29.860Z,14.70
2022-10-13T04:07:31.959Z,13.67
2022-10-13T04:09:33.986Z,14.00
2022-10-13T04:11:36.015Z,23.10
2022-10-13T04:13:38.023Z,11.80
2022-10-13T04:15:40.490Z,19.73
2022-10-13T04:17:42.512Z,19.03
2022-10-13T04:19:44.529Z,16.80
2022-10-13T04:21:46.559Z,19.90
2022-10-13T04:23:48.633Z,17.53
2022-10-13T04:25:50.759Z,17.10
2022-10-13T04:27:52.857Z,16.00
2022-10-13T04:29:55.155Z,13.60
2022-10-13T04:31:59.637Z,15.03
2022-10-13T04:34:01.683Z,17.63
2022-10-13T04:36:08.279Z,18.13
2022-10-13T04:38:10.274Z,13.47
2022-10-13T04:40:12.808Z,20.10
2022-10-13T04:42:14.856Z,13.20
2022-10-13T04:44:16.858Z,14.37
2022-10-13T04:46:23.141Z,14.87
2022-10-13T04:48:26.186Z,14.50
2022-10-13T04:50:28.533Z,16.13
2022-10-13T04:52:35.162Z,15.67
2022-10-13T04:54:37.242Z,16.43
2022-10-13T04:56:39.299Z,18.10
2022-10-13T04:58:42.521Z,16.50
2022-10-13T05:00:46.705Z,19.80
2022-10-13T05:02:48.798Z,19.80
2022-10-13T05:04:50.708Z,18.20
2022-10-13T05:07:16.570Z,18.87
2022-10-13T05:09:16.918Z,18.77
2022-10-13T05:11:20.610Z,21.87
2022-10-13T05:13:23.276Z,19.93
2022-10-13T05:15:25.322Z,17.70
2022-10-13T05:17:34.999Z,23.23
2022-10-13T05:19:41.208Z,19.50
2022-10-13T05:21:43.235Z,27.10
2022-10-13T05:23:45.885Z,22.90
2022-10-13T05:25:47.863Z,23.10
2022-10-13T05:27:53.286Z,24.00
2022-10-13T05:29:55.274Z,32.80
2022-10-13T05:31:57.207Z,25.47
2022-10-13T05:33:59.435Z,29.27
2022-10-13T05:36:09.415Z,21.83
2022-10-13T05:38:12.480Z,25.17
2022-10-13T05:40:14.465Z,21.63
2022-10-13T05:42:16.531Z,27.50
2022-10-13T05:44:19.224Z,27.50
2022-10-13T05:46:30.483Z,27.80
2022-10-13T05:48:32.561Z,23.90
2022-10-13T05:50:34.633Z,25.93
2022-10-13T05:52:37.825Z,25.87
2022-10-13T05:54:43.184Z,20.60
2022-10-13T05:56:50.186Z,23.90
2022-10-13T05:58:55.680Z,25.93
2022-10-13T06:00:57.615Z,27.93
2022-10-13T06:03:07.983Z,30.40
2022-10-13T06:05:15.036Z,26.67
2022-10-13T06:07:17.303Z,31.30
2022-10-13T06:09:19.375Z,36.10
2022-10-13T06:11:41.394Z,32.60
2022-10-13T06:14:03.432Z,28.17
2022-10-13T06:16:05.698Z,30.80
2022-10-13T06:18:10.877Z,23.40
2022-10-13T06:20:12.878Z,25.50
2022-10-13T06:22:15.240Z,28.63
2022-10-13T06:24:17.666Z,33.50
2022-10-13T06:26:19.976Z,29.27
2022-10-13T06:28:22.161Z,30.83
2022-10-13T06:30:24.174Z,35.67
2022-10-13T06:32:26.194Z,28.70
2022-10-13T06:34:28.118Z,25.40
2022-10-13T06:36:30.147Z,27.77
2022-10-13T06:38:32.640Z,29.07
2022-10-13T06:40:34.560Z,34.90
2022-10-13T06:42:36.538Z,29.90
2022-10-13T06:44:44.532Z,31.60
2022-10-13T06:46:46.529Z,34.03
2022-10-13T06:48:51.734Z,27.30
2022-10-13T06:50:55.372Z,31.50
2022-10-13T06:52:57.282Z,32.20
2022-10-13T06:54:59.211Z,32.57
2022-10-13T06:57:06.221Z,25.73
2022-10-13T06:59:08.218Z,28.50
2022-10-13T07:01:13.468Z,32.97
2022-10-13T07:03:15.342Z,32.40
2022-10-13T07:05:17.381Z,30.53
2022-10-13T07:07:19.458Z,29.40
2022-10-13T07:09:22.824Z,38.90
2022-10-13T07:11:24.771Z,27.70
2022-10-13T07:13:33.634Z,26.73
2022-10-13T07:15:39.971Z,21.10
2022-10-13T07:17:41.925Z,22.90
2022-10-13T07:19:43.891Z,26.60
2022-10-13T07:21:45.944Z,21.53
2022-10-13T07:23:47.930Z,28.67
2022-10-13T07:25:49.986Z,26.97
2022-10-13T07:27:51.889Z,25.53
2022-10-13T07:29:53.951Z,24.30
2022-10-13T07:31:55.919Z,25.73
2022-10-13T07:33:59.333Z,28.47
2022-10-13T07:36:03.798Z,24.93
2022-10-13T07:38:06.831Z,20.90
2022-10-13T07:40:09.399Z,24.73
2022-10-13T07:42:11.385Z,31.47
2022-10-13T07:44:13.411Z,24.07
2022-10-13T07:46:16.844Z,23.40
2022-10-13T07:48:18.853Z,29.97
2022-10-13T07:50:20.894Z,26.83
2022-10-13T07:52:23.274Z,27.40
2022-10-13T07:54:27.475Z,25.13
2022-10-13T07:56:29.609Z,30.77
2022-10-13T07:58:31.922Z,27.43
2022-10-13T08:00:33.890Z,32.80
2022-10-13T08:02:35.879Z,28.17
2022-10-13T08:04:39.227Z,32.40
2022-10-13T08:06:42.572Z,25.33
2022-10-13T08:08:44.452Z,28.00
2022-10-13T08:10:48.017Z,31.10
2022-10-13T08:12:50.035Z,26.40
2022-10-13T08:14:52.141Z,24.20
2022-10-13T08:16:54.262Z,21.40
2022-10-13T08:18:59.638Z,22.53
2022-10-13T08:23:24.631Z,38.27
2022-10-13T08:25:26.608Z,30.67
2022-10-13T08:27:47.612Z,23.40
2022-10-13T08:29:51.203Z,24.77
2022-10-13T08:31:53.846Z,25.63
2022-10-13T08:33:56.061Z,26.93
2022-10-13T08:35:58.025Z,24.60
2022-10-13T08:38:01.619Z,22.33
2022-10-13T08:40:04.255Z,28.07
2022-10-13T08:42:19.089Z,24.23
2022-10-13T08:47:08.395Z,26.97
2022-10-13T08:49:11.131Z,21.40
2022-10-13T08:51:14.725Z,20.50
2022-10-13T08:53:24.226Z,21.83
2022-10-13T08:55:36.406Z,18.83
2022-10-13T08:57:38.440Z,20.23
2022-10-13T08:59:40.515Z,23.30
2022-10-13T09:01:43.230Z,22.47
2022-10-13T09:03:56.022Z,26.60
2022-10-13T09:06:11.780Z,29.83
2022-10-13T09:08:20.256Z,23.20
2022-10-13T09:10:22.284Z,24.37
2022-10-13T09:12:25.134Z,23.73
2022-10-13T09:14:32.704Z,24.03
2022-10-13T09:16:34.862Z,21.43
2022-10-13T09:18:39.255Z,21.70
2022-10-13T09:20:50.040Z,23.63
2022-10-13T09:23:08.085Z,29.40
2022-10-13T09:25:21.298Z,20.60
2022-10-13T09:27:23.343Z,27.33
2022-10-13T09:29:26.447Z,26.03
2022-10-13T09:31:28.988Z,25.37
2022-10-13T09:33:35.316Z,27.50
2022-10-13T09:35:45.210Z,24.13
2022-10-13T09:38:02.012Z,26.60
2022-10-13T09:40:20.649Z,29.97
2022-10-13T09:42:27.409Z,28.47
2022-10-13T09:44:32.402Z,22.10
2022-10-13T09:46:37.233Z,28.80
2022-10-13T09:48:42.331Z,24.73
2022-10-13T09:50:49.885Z,23.67
2022-10-13T09:52:52.231Z,30.47
2022-10-13T09:55:01.025Z,24.50
2022-10-13T09:57:07.761Z,23.67
2022-10-13T09:59:31.223Z,22.30
2022-10-13T10:01:35.535Z,23.83
2022-10-13T10:03:38.646Z,27.80
2022-10-13T10:05:50.826Z,18.70
2022-10-13T10:07:53.265Z,24.77
2022-10-13T10:09:57.975Z,20.13
2022-10-13T10:12:02.260Z,25.87
2022-10-13T10:14:26.698Z,21.97
2022-10-13T10:16:39.903Z,23.73
2022-10-13T10:18:51.904Z,34.10
2022-10-13T10:21:03.280Z,25.03
2022-10-13T10:23:10.855Z,19.83
2022-10-13T10:25:49.663Z,20.20
2022-10-13T10:28:09.335Z,22.93
2022-10-13T10:30:16.835Z,27.53
2022-10-13T10:32:51.126Z,31.47
2022-10-13T10:35:04.774Z,27.30
2022-10-13T10:37:44.677Z,20.97
2022-10-13T10:40:03.554Z,21.17
2022-10-13T10:42:30.671Z,25.43
2022-10-13T10:44:37.180Z,28.60
2022-10-13T10:46:48.722Z,46.33
2022-10-13T10:48:54.068Z,22.23
2022-10-13T10:50:56.614Z,18.33
2022-10-13T10:53:07.119Z,22.03
2022-10-13T10:55:46.673Z,19.30
2022-10-13T10:58:25.987Z,15.43
2022-10-13T11:00:31.152Z,19.80
2022-10-13T11:02:51.783Z,17.33
2022-10-13T11:04:54.473Z,18.50
2022-10-13T11:06:56.928Z,20.87
2022-10-13T11:08:58.965Z,14.20
2022-10-13T11:11:24.729Z,21.53
2022-10-13T11:13:29.123Z,18.90
2022-10-13T11:15:45.520Z,14.07
2022-10-13T11:17:47.494Z,15.43
2022-10-13T11:19:49.777Z,13.67
2022-10-13T11:22:00.557Z,18.23
2022-10-13T11:24:47.991Z,17.30
2022-10-13T11:26:51.407Z,13.10
2022-10-13T11:28:53.769Z,18.57
2022-10-13T11:30:57.727Z,12.93
2022-10-13T11:32:59.705Z,14.40
2022-10-13T11:35:23.207Z,15.67
2022-10-13T11:37:32.142Z,14.63
2022-10-13T11:39:59.358Z,14.47
2022-10-13T11:42:21.049Z,20.67
2022-10-13T11:44:56.170Z,16.63
2022-10-13T11:47:04.304Z,13.60
2022-10-13T11:49:28.638Z,17.27
2022-10-13T11:51:45.956Z,16.80
2022-10-13T11:53:55.715Z,21.20
2022-10-13T11:56:01.373Z,14.90
2022-10-13T11:58:16.484Z,13.83
2022-10-13T12:00:19.400Z,15.33
2022-10-13T12:02:26.888Z,14.60
2022-10-13T12:04:29.082Z,14.47
2022-10-13T12:06:33.639Z,12.03
2022-10-13T12:08:36.718Z,13.07
2022-10-13T12:10:39.318Z,11.00
2022-10-13T12:12:49.124Z,13.17
2022-10-13T12:14:54.104Z,11.80
2022-10-13T12:17:00.067Z,11.80
2022-10-13T12:19:16.229Z,9.73
2022-10-13T12:21:22.854Z,16.60
2022-10-13T12:23:26.378Z,12.57
2022-10-13T12:25:29.987Z,13.20
2022-10-13T12:27:49.272Z,12.23
2022-10-13T12:29:51.319Z,11.77
2022-10-13T12:31:54.029Z,11.50
2022-10-13T12:34:00.527Z,13.43
2022-10-13T12:36:13.820Z,18.63
2022-10-13T12:38:20.091Z,10.53
2022-10-13T12:40:22.302Z,11.60
2022-10-13T12:42:30.397Z,14.00
2022-10-13T12:44:32.526Z,10.60
2022-10-13T12:46:42.874Z,19.03
2022-10-13T12:48:45.266Z,15.33
2022-10-13T12:50:47.247Z,13.00
2022-10-13T12:52:51.241Z,12.93
2022-10-13T12:54:57.820Z,17.47
2022-10-13T12:57:16.793Z,11.67
2022-10-13T12:59:20.877Z,14.33
2022-10-13T13:01:32.400Z,12.07
2022-10-13T13:03:37.157Z,14.83
2022-10-13T13:05:49.245Z,13.93
2022-10-13T13:07:53.879Z,11.93
2022-10-13T13:10:13.268Z,11.30
2022-10-13T13:12:23.741Z,13.40
2022-10-13T13:14:38.039Z,16.63
2022-10-13T13:16:39.950Z,16.47
2022-10-13T13:18:44.239Z,11.23
2022-10-13T13:20:46.227Z,14.80
2022-10-13T13:22:48.411Z,18.80
2022-10-13T13:24:51.551Z,20.27
2022-10-13T13:26:53.612Z,40.33
2022-10-13T13:28:56.457Z,18.27
2022-10-13T13:30:59.141Z,34.23
2022-10-13T13:33:01.203Z,12.73
2022-10-13T13:35:04.283Z,16.90
2022-10-13T13:37:06.572Z,15.73
2022-10-13T13:39:16.312Z,8.83
2022-10-13T13:41:18.718Z,13.83
2022-10-13T13:43:20.637Z,13.40
2022-10-13T13:45:24.941Z,15.37
2022-10-13T13:47:28.956Z,8.93
2022-10-13T13:49:31.132Z,12.90
2022-10-13T13:51:33.368Z,12.23
2022-10-13T13:53:35.368Z,10.27
2022-10-13T13:55:38.007Z,13.10
2022-10-13T13:57:40.497Z,8.87
2022-10-13T13:59:42.935Z,11.03
2022-10-13T14:01:44.959Z,11.10
2022-10-13T14:03:47.224Z,9.20
2022-10-13T14:05:50.551Z,10.63
2022-10-13T14:07:56.754Z,9.63
2022-10-13T14:10:01.833Z,9.90
2022-10-13T14:12:05.038Z,9.70
2022-10-13T14:14:06.971Z,11.23
2022-10-13T14:16:17.017Z,13.40
2022-10-13T14:18:19.263Z,8.70
2022-10-13T14:20:21.986Z,6.07
2022-10-13T14:22:24.212Z,11.50
2022-10-13T14:24:26.470Z,8.60
2022-10-13T14:26:28.508Z,7.93
2022-10-13T14:28:30.586Z,11.80
2022-10-13T14:30:33.657Z,6.60
2022-10-13T14:32:38.807Z,7.47
2022-10-13T14:34:40.803Z,12.30
2022-10-13T14:36:42.837Z,11.30
2022-10-13T14:38:44.775Z,8.63
2022-10-13T14:40:46.750Z,10.87
2022-10-13T14:42:48.738Z,29.93
2022-10-13T14:44:51.587Z,14.13
2022-10-13T14:46:53.560Z,11.67
2022-10-13T14:48:57.121Z,11.47
2022-10-13T14:50:59.135Z,16.23
2022-10-13T14:53:01.295Z,9.73
2022-10-13T14:55:04.083Z,13.07
2022-10-13T14:57:08.089Z,11.10
2022-10-13T14:59:11.240Z,8.47
2022-10-13T15:01:13.269Z,12.70
2022-10-13T15:03:15.270Z,9.43
2022-10-13T15:05:18.414Z,9.47
2022-10-13T15:07:20.620Z,11.93
2022-10-13T15:09:29.086Z,9.70
2022-10-13T15:11:40.870Z,8.10
2022-10-13T15:13:42.888Z,12.20
2022-10-13T15:15:47.997Z,9.33
2022-10-13T15:17:49.955Z,9.77
2022-10-13T15:19:51.940Z,9.70
2022-10-13T15:21:53.973Z,10.53
2022-10-13T15:23:56.623Z,11.00
2022-10-13T15:26:00.403Z,16.07
2022-10-13T15:28:02.380Z,12.40
2022-10-13T15:30:04.769Z,26.47
2022-10-13T15:32:09.353Z,22.30
2022-10-13T15:34:11.315Z,20.17
2022-10-13T15:36:13.699Z,21.73
2022-10-13T15:38:16.363Z,24.90
2022-10-13T15:40:18.304Z,20.77
2022-10-13T15:42:20.499Z,22.20
2022-10-13T15:44:26.305Z,17.73
2022-10-13T15:46:29.809Z,16.80
2022-10-13T15:48:32.440Z,11.43
2022-10-13T15:50:34.668Z,11.57
2022-10-13T15:52:39.042Z,19.33
2022-10-13T15:54:41.075Z,18.07
2022-10-13T15:56:43.528Z,17.63
2022-10-13T15:58:45.672Z,16.37
2022-10-13T16:00:47.652Z,11.17
2022-10-13T16:02:51.493Z,15.23
2022-10-13T16:04:53.680Z,10.13
2022-10-13T16:06:55.710Z,13.20
2022-10-13T16:08:57.733Z,8.50
2022-10-13T16:10:59.648Z,12.60
2022-10-13T16:13:01.612Z,10.07
2022-10-13T16:15:03.894Z,10.70
2022-10-13T16:17:05.884Z,13.90
2022-10-13T16:19:07.818Z,10.07
2022-10-13T16:21:19.231Z,8.00
2022-10-13T16:23:21.317Z,17.20
2022-10-13T16:25:23.409Z,9.77
2022-10-13T16:27:25.473Z,12.13
2022-10-13T16:29:27.657Z,12.80
2022-10-13T16:31:29.723Z,12.90
2022-10-13T16:33:35.050Z,9.87
2022-10-13T16:35:36.990Z,8.27
2022-10-13T16:37:38.993Z,12.37
2022-10-13T16:39:43.774Z,13.00
2022-10-13T16:41:47.699Z,9.47
2022-10-13T16:43:50.913Z,9.10
2022-10-13T16:46:00.091Z,13.80
2022-10-13T16:48:02.483Z,13.57
2022-10-13T16:50:09.408Z,12.30
2022-10-13T16:52:11.347Z,11.57
2022-10-13T16:54:13.395Z,9.47
2022-10-13T16:56:15.795Z,19.20
2022-10-13T16:58:17.707Z,11.27
2022-10-13T17:00:19.900Z,10.47
2022-10-13T17:02:22.065Z,16.53
2022-10-13T17:04:24.383Z,10.50
2022-10-13T17:06:28.591Z,9.27
2022-10-13T17:08:31.367Z,13.70
2022-10-13T17:10:34.586Z,14.27
2022-10-13T17:12:36.869Z,13.80
2022-10-13T17:14:39.242Z,13.47
2022-10-13T17:16:41.262Z,17.30
2022-10-13T17:18:43.528Z,16.30
2022-10-13T17:21:02.823Z,16.83
2022-10-13T17:23:04.745Z,20.63
2022-10-13T17:25:07.108Z,20.17
2022-10-13T17:27:09.046Z,17.87
2022-10-13T17:29:12.674Z,17.47
2022-10-13T17:31:17.165Z,14.47
2022-10-13T17:33:19.053Z,19.03
2022-10-13T17:35:21.154Z,17.27
2022-10-13T17:37:24.040Z,18.00
2022-10-13T17:39:26.235Z,11.60
2022-10-13T17:41:28.274Z,13.47
2022-10-13T17:43:30.930Z,12.43
2022-10-13T17:45:33.111Z,19.37
2022-10-13T17:47:35.139Z,15.70
2022-10-13T17:49:37.283Z,15.30
2022-10-13T17:51:43.341Z,12.90
2022-10-13T17:53:45.510Z,18.47
2022-10-13T17:55:47.568Z,16.17
2022-10-13T17:57:49.725Z,29.70
2022-10-13T17:59:52.868Z,21.63
2022-10-13T18:01:54.925Z,25.00
2022-10-13T18:03:58.837Z,23.80
2022-10-13T18:06:01.560Z,20.30
2022-10-13T18:08:03.578Z,22.13
2022-10-13T18:10:06.289Z,23.73
2022-10-13T18:12:08.257Z,19.47
2022-10-13T18:14:10.238Z,19.17
2022-10-13T18:16:22.823Z,21.50
2022-10-13T18:18:24.882Z,20.00
2022-10-13T18:20:27.236Z,15.77
2022-10-13T18:22:29.138Z,18.50
2022-10-13T18:24:31.934Z,24.80
2022-10-13T18:26:36.670Z,13.63
2022-10-13T18:28:45.600Z,17.77
2022-10-13T18:30:53.768Z,16.77
2022-10-13T18:32:55.736Z,17.27
2022-10-13T18:34:57.673Z,15.23
2022-10-13T18:36:59.686Z,17.07
2022-10-13T18:39:13.219Z,13.77
2022-10-13T18:41:16.181Z,18.77
2022-10-13T18:43:18.179Z,14.50
2022-10-13T18:45:20.132Z,17.20
2022-10-13T18:47:22.559Z,19.30
2022-10-13T18:49:31.063Z,18.23
2022-10-13T18:51:36.187Z,14.50
2022-10-13T18:53:40.430Z,16.20
2022-10-13T18:55:44.156Z,17.90
2022-10-13T18:57:46.292Z,17.17
2022-10-13T18:59:48.306Z,17.97
2022-10-13T19:01:50.269Z,17.40
2022-10-13T19:03:53.199Z,17.00
2022-10-13T19:05:55.235Z,17.47
2022-10-13T19:07:57.212Z,22.10
2022-10-13T19:09:59.155Z,17.77
2022-10-13T19:12:01.091Z,15.50
2022-10-13T19:14:05.477Z,15.27
2022-10-13T19:16:07.813Z,17.23
2022-10-13T19:18:09.830Z,12.40
2022-10-13T19:20:14.138Z,15.00
2022-10-13T19:22:16.066Z,15.00
2022-10-13T19:24:18.015Z,12.97
2022-10-13T19:26:23.817Z,16.93
2022-10-13T19:28:25.918Z,18.30
2022-10-13T19:30:29.397Z,16.40
2022-10-13T19:32:31.335Z,15.50
2022-10-13T19:34:33.490Z,19.50
2022-10-13T19:36:39.024Z,15.30
2022-10-13T19:38:40.967Z,20.27
2022-10-13T19:40:44.476Z,18.03
2022-10-13T19:42:47.470Z,16.37
2022-10-13T19:44:49.448Z,17.60
2022-10-13T19:46:52.397Z,16.23
2022-10-13T19:48:54.395Z,14.03
2022-10-13T19:50:56.340Z,14.90
2022-10-13T19:52:58.301Z,17.70
2022-10-13T19:55:01.191Z,13.33
2022-10-13T19:57:03.332Z,14.10
2022-10-13T19:59:05.425Z,13.63
2022-10-13T20:01:08.430Z,12.60
2022-10-13T20:03:10.845Z,15.17
2022-10-13T20:05:14.135Z,19.43
2022-10-13T20:07:16.127Z,17.57
2022-10-13T20:09:20.486Z,16.10
2022-10-13T20:11:24.308Z,15.17
2022-10-13T20:13:26.478Z,16.10
2022-10-13T20:15:42.620Z,16.03
2022-10-13T20:17:44.646Z,12.83
2022-10-13T20:19:46.650Z,15.40
2022-10-13T20:21:51.579Z,16.03
2022-10-13T20:23:54.336Z,13.37
2022-10-13T20:25:56.294Z,12.70
2022-10-13T20:28:03.662Z,14.00
2022-10-13T20:30:06.279Z,15.30
2022-10-13T20:32:08.358Z,12.87
2022-10-13T20:34:10.672Z,15.00
2022-10-13T20:36:14.887Z,12.13
2022-10-13T20:38:18.243Z,14.93
2022-10-13T20:40:20.182Z,16.40
2022-10-13T20:42:22.144Z,12.67
2022-10-13T20:44:24.165Z,18.00
2022-10-13T20:46:26.692Z,13.80
2022-10-13T20:48:51.127Z,15.33
2022-10-13T20:50:53.432Z,13.50
2022-10-13T20:52:55.486Z,11.40
2022-10-13T20:54:57.491Z,11.80
2022-10-13T20:57:00.938Z,13.50
2022-10-13T20:59:04.499Z,12.83
2022-10-13T21:01:06.581Z,13.37
2022-10-13T21:03:11.453Z,12.43
2022-10-13T21:05:14.411Z,16.63
2022-10-13T21:07:16.378Z,12.40
2022-10-13T21:09:18.277Z,15.37
2022-10-13T21:11:21.555Z,14.80
2022-10-13T21:13:23.622Z,13.77
2022-10-13T21:15:25.511Z,16.43
2022-10-13T21:17:29.647Z,14.40
2022-10-13T21:19:31.630Z,13.77
2022-10-13T21:21:34.952Z,12.43
2022-10-13T21:23:37.469Z,11.30
2022-10-13T21:25:39.462Z,14.50
2022-10-13T21:27:41.421Z,14.43
2022-10-13T21:29:43.337Z,12.63
2022-10-13T21:31:45.307Z,21.40
2022-10-13T21:33:47.746Z,20.87
2022-10-13T21:35:49.722Z,13.37
2022-10-13T21:37:51.791Z,16.93
2022-10-13T21:39:53.770Z,18.10
2022-10-13T21:41:55.802Z,13.87
2022-10-13T21:43:59.400Z,12.17
2022-10-13T21:46:13.433Z,13.90
2022-10-13T21:48:17.724Z,16.33
2022-10-13T21:50:19.638Z,13.97
2022-10-13T21:52:23.506Z,14.00
2022-10-13T21:54:25.470Z,13.20
2022-10-13T21:56:28.149Z,15.63
2022-10-13T21:58:30.090Z,14.57
2022-10-13T22:00:32.639Z,14.03
2022-10-13T22:02:34.620Z,10.97
2022-10-13T22:04:36.804Z,14.93
2022-10-13T22:06:38.875Z,12.90
2022-10-13T22:08:42.614Z,14.50
2022-10-13T22:10:49.064Z,14.80
2022-10-13T22:12:51.139Z,13.27
2022-10-13T22:14:53.188Z,11.27
2022-10-13T22:16:55.211Z,11.63
2022-10-13T22:18:57.950Z,17.17
2022-10-13T22:21:04.697Z,14.87
2022-10-13T22:23:06.689Z,13.43
2022-10-13T22:25:09.695Z,14.90
2022-10-13T22:27:11.660Z,13.60
2022-10-13T22:29:17.044Z,16.73
2022-10-13T22:31:19.171Z,13.63
2022-10-13T22:33:21.242Z,18.17
2022-10-13T22:35:28.386Z,24.50
2022-10-13T22:37:30.482Z,17.10
2022-10-13T22:39:32.463Z,14.90
2022-10-13T22:41:44.042Z,17.80
2022-10-13T22:43:51.824Z,26.97
2022-10-13T22:45:53.729Z,13.73
2022-10-13T22:47:55.645Z,13.63
2022-10-13T22:49:57.569Z,15.60
2022-10-13T22:51:59.532Z,22.03
2022-10-13T22:54:02.052Z,17.40
2022-10-13T22:56:09.086Z,14.17
2022-10-13T22:58:12.089Z,20.00
2022-10-13T23:00:14.617Z,16.70
2022-10-13T23:02:17.147Z,18.20
2022-10-13T23:04:19.137Z,21.43
2022-10-13T23:06:23.865Z,20.63
2022-10-13T23:08:25.839Z,16.97
2022-10-13T23:10:27.970Z,17.07
2022-10-13T23:12:29.918Z,20.80
2022-10-13T23:14:31.855Z,22.10
2022-10-13T23:16:34.354Z,15.87
2022-10-13T23:18:36.335Z,20.50
2022-10-13T23:20:41.500Z,16.40
2022-10-13T23:22:43.483Z,23.77
2022-10-13T23:24:45.455Z,20.77
2022-10-13T23:26:47.461Z,15.63
2022-10-13T23:28:49.663Z,17.50
2022-10-13T23:30:51.650Z,15.80
2022-10-13T23:32:55.098Z,22.20
2022-10-13T23:34:57.024Z,15.30
2022-10-13T23:37:04.296Z,19.87
2022-10-13T23:39:06.838Z,14.77
2022-10-13T23:41:12.460Z,19.10
2022-10-13T23:43:15.107Z,17.20
2022-10-13T23:45:17.097Z,19.50
2022-10-13T23:47:19.398Z,17.83
2022-10-13T23:49:21.744Z,21.00
2022-10-13T23:51:25.395Z,20.60
2022-10-13T23:53:27.380Z,14.53
2022-10-13T23:55:29.645Z,17.40
2022-10-13T23:57:31.570Z,20.50
2022-10-13T23:59:33.500Z,18.80
